Cuneyt Solakoglu — TCTN4 — position and weather

sailwx.info

Track history (hours):
 
Tides and Currents Weather Stations Pressure Air Temp Water Temp Dewpoint Dewpoint Depression Visibility Wind Speed Wind Dir Waves Ship Positions

Cuneyt Solakoglu

Last reported at 2015-Jan-24 12:27 UTC. Time now 2015-Jan-26 14:32 UTC.
Position N 40°28' E 026°51'.

Length 193 m; draft 6.6 m.

Type: Ship (hazmat cat A). MMSI: 271002676.

Date/timePositionNaut miles runAvg speedWind from/ knotsBaromVisibWave heightAir tempDewpointWater temp
2015-Jan-24 12:27N 40°28' E 026°51'2814.2
2015-Jan-24 10:31N 40°10' E 026°23'3115.0
2015-Jan-24 08:26N 39°50' E 025°52'2020.0
2015-Jan-24 07:27N 39°32' E 025°41'  
2015-Jan-21 21:11N 42°37' E 006°31'3617.7
2015-Jan-21 19:09N 43°04' E 005°58'4 6.6
2015-Jan-21 18:32N 43°06' E 005°54'0 0.0
2015-Jan-21 17:31N 43°06' E 005°54'0 0.0
2015-Jan-21 16:31N 43°06' E 005°54'0 0.0
2015-Jan-21 15:33N 43°06' E 005°54'0 0.0
2015-Jan-21 14:33N 43°06' E 005°54'0 0.0
2015-Jan-21 13:32N 43°06' E 005°54'0 0.0
2015-Jan-21 12:32N 43°06' E 005°54'0 0.0
2015-Jan-21 11:32N 43°06' E 005°54'0 0.0
2015-Jan-21 10:31N 43°06' E 005°54'0 0.0
2015-Jan-21 09:31N 43°06' E 005°54'0 0.0
2015-Jan-21 08:33N 43°06' E 005°54'0 0.0
2015-Jan-21 07:33N 43°06' E 005°54'0 0.1
2015-Jan-21 06:33N 43°06' E 005°54'6 6.2
2015-Jan-21 05:33N 43°02' E 005°60'  
2015-Jan-18 15:25N 39°43' E 025°45'6115.5
2015-Jan-18 11:28N 40°25' E 026°43'1515.1
2015-Jan-18 10:27N 40°32' E 027°02'9 0.4
2015-Jan-17 10:20N 40°28' E 026°51'1415.4
2015-Jan-17 09:24N 40°19' E 026°36'1313.0
2015-Jan-17 08:22N 40°10' E 026°24'3215.4
2015-Jan-17 06:19N 39°49' E 025°52'1719.9
2015-Jan-17 05:27N 39°34' E 025°42'11619.6
2015-Jan-16 23:30N 37°50' E 024°35'  
2015-Jan-14 18:32N 43°06' E 005°54'0 0.0
2015-Jan-14 17:32N 43°06' E 005°54'0 0.0
2015-Jan-14 16:31N 43°06' E 005°54'0 0.0
2015-Jan-14 15:31N 43°06' E 005°54'0 0.0
2015-Jan-14 14:34N 43°06' E 005°54'0 0.0
2015-Jan-14 13:33N 43°06' E 005°54'0 0.0
2015-Jan-14 12:30N 43°06' E 005°54'  
Track history (hours):
 
Tides and Currents Weather Stations Pressure Air Temp Water Temp Dewpoint Dewpoint Depression Visibility Wind Speed Wind Dir Waves Ship Positions

Cuneyt Solakoglu

Last reported at 2015-Jan-24 12:27 UTC. Time now 2015-Jan-26 14:32 UTC.
Position N 40°28' E 026°51'.

Length 193 m; draft 6.6 m.

Type: Ship (hazmat cat A). MMSI: 271002676.

Date/timePositionNaut miles runAvg speedWind from/ knotsBaromVisibWave heightAir tempDewpointWater temp
2015-Jan-24 12:27N 40°28' E 026°51'2814.2
2015-Jan-24 10:31N 40°10' E 026°23'3115.0
2015-Jan-24 08:26N 39°50' E 025°52'2020.0
2015-Jan-24 07:27N 39°32' E 025°41'  
2015-Jan-21 21:11N 42°37' E 006°31'3617.7
2015-Jan-21 19:09N 43°04' E 005°58'4 6.6
2015-Jan-21 18:32N 43°06' E 005°54'0 0.0
2015-Jan-21 17:31N 43°06' E 005°54'0 0.0
2015-Jan-21 16:31N 43°06' E 005°54'0 0.0
2015-Jan-21 15:33N 43°06' E 005°54'0 0.0
2015-Jan-21 14:33N 43°06' E 005°54'0 0.0
2015-Jan-21 13:32N 43°06' E 005°54'0 0.0
2015-Jan-21 12:32N 43°06' E 005°54'0 0.0
2015-Jan-21 11:32N 43°06' E 005°54'0 0.0
2015-Jan-21 10:31N 43°06' E 005°54'0 0.0
2015-Jan-21 09:31N 43°06' E 005°54'0 0.0
2015-Jan-21 08:33N 43°06' E 005°54'0 0.0
2015-Jan-21 07:33N 43°06' E 005°54'0 0.1
2015-Jan-21 06:33N 43°06' E 005°54'6 6.2
2015-Jan-21 05:33N 43°02' E 005°60'  
2015-Jan-18 15:25N 39°43' E 025°45'6115.5
2015-Jan-18 11:28N 40°25' E 026°43'1515.1
2015-Jan-18 10:27N 40°32' E 027°02'9 0.4
2015-Jan-17 10:20N 40°28' E 026°51'1415.4
2015-Jan-17 09:24N 40°19' E 026°36'1313.0
2015-Jan-17 08:22N 40°10' E 026°24'3215.4
2015-Jan-17 06:19N 39°49' E 025°52'1719.9
2015-Jan-17 05:27N 39°34' E 025°42'11619.6
2015-Jan-16 23:30N 37°50' E 024°35'  
2015-Jan-14 18:32N 43°06' E 005°54'0 0.0
2015-Jan-14 17:32N 43°06' E 005°54'0 0.0
2015-Jan-14 16:31N 43°06' E 005°54'0 0.0
2015-Jan-14 15:31N 43°06' E 005°54'0 0.0
2015-Jan-14 14:34N 43°06' E 005°54'0 0.0
2015-Jan-14 13:33N 43°06' E 005°54'0 0.0
2015-Jan-14 12:30N 43°06' E 005°54'  

Dump ship's entire track history